sensor_id;sensor_type;location;lat;lon;timestamp;P1;durP1;ratioP1;P2;durP2;ratioP2
12267;SDS011;6196;48.398;11.736;2023-05-29T00:02:12;6.33;;;4.97;;
12267;SDS011;6196;48.398;11.736;2023-05-29T00:04:39;7.53;;;5.43;;
12267;SDS011;6196;48.398;11.736;2023-05-29T00:07:06;7.73;;;4.90;;
12267;SDS011;6196;48.398;11.736;2023-05-29T00:09:33;8.13;;;4.93;;
12267;SDS011;6196;48.398;11.736;2023-05-29T00:12:00;6.47;;;4.70;;
12267;SDS011;6196;48.398;11.736;2023-05-29T00:14:28;8.03;;;5.37;;
12267;SDS011;6196;48.398;11.736;2023-05-29T00:16:55;7.40;;;4.90;;
12267;SDS011;6196;48.398;11.736;2023-05-29T00:19:23;5.27;;;4.10;;
12267;SDS011;6196;48.398;11.736;2023-05-29T00:21:51;7.27;;;5.40;;
12267;SDS011;6196;48.398;11.736;2023-05-29T00:24:18;6.27;;;4.80;;
12267;SDS011;6196;48.398;11.736;2023-05-29T00:26:46;7.07;;;5.33;;
12267;SDS011;6196;48.398;11.736;2023-05-29T00:29:13;7.53;;;5.07;;
12267;SDS011;6196;48.398;11.736;2023-05-29T00:31:40;6.30;;;5.07;;
12267;SDS011;6196;48.398;11.736;2023-05-29T00:34:07;7.30;;;5.13;;
12267;SDS011;6196;48.398;11.736;2023-05-29T00:36:34;6.53;;;5.17;;
12267;SDS011;6196;48.398;11.736;2023-05-29T00:39:01;7.87;;;5.27;;
12267;SDS011;6196;48.398;11.736;2023-05-29T00:41:28;8.17;;;5.53;;
12267;SDS011;6196;48.398;11.736;2023-05-29T00:43:56;7.63;;;5.20;;
12267;SDS011;6196;48.398;11.736;2023-05-29T00:46:23;7.33;;;5.43;;
12267;SDS011;6196;48.398;11.736;2023-05-29T00:48:50;7.33;;;5.37;;
12267;SDS011;6196;48.398;11.736;2023-05-29T00:51:17;8.70;;;5.00;;
12267;SDS011;6196;48.398;11.736;2023-05-29T00:53:44;8.97;;;5.50;;
12267;SDS011;6196;48.398;11.736;2023-05-29T00:56:11;6.93;;;4.73;;
12267;SDS011;6196;48.398;11.736;2023-05-29T00:58:39;6.80;;;5.60;;
12267;SDS011;6196;48.398;11.736;2023-05-29T01:01:07;5.53;;;4.73;;
12267;SDS011;6196;48.398;11.736;2023-05-29T01:03:34;7.03;;;4.73;;
12267;SDS011;6196;48.398;11.736;2023-05-29T01:06:02;6.23;;;5.23;;
12267;SDS011;6196;48.398;11.736;2023-05-29T01:08:29;7.10;;;5.17;;
12267;SDS011;6196;48.398;11.736;2023-05-29T01:10:59;9.23;;;5.40;;
12267;SDS011;6196;48.398;11.736;2023-05-29T01:13:34;7.87;;;5.13;;
12267;SDS011;6196;48.398;11.736;2023-05-29T01:27:05;9.53;;;5.20;;
12267;SDS011;6196;48.398;11.736;2023-05-29T01:29:37;8.37;;;5.33;;
12267;SDS011;6196;48.398;11.736;2023-05-29T01:32:09;7.67;;;5.00;;
12267;SDS011;6196;48.398;11.736;2023-05-29T01:34:37;8.37;;;5.57;;
12267;SDS011;6196;48.398;11.736;2023-05-29T01:37:04;8.40;;;5.53;;
12267;SDS011;6196;48.398;11.736;2023-05-29T01:39:31;6.93;;;5.00;;
12267;SDS011;6196;48.398;11.736;2023-05-29T01:41:58;7.10;;;5.37;;
12267;SDS011;6196;48.398;11.736;2023-05-29T01:44:26;9.77;;;5.67;;
12267;SDS011;6196;48.398;11.736;2023-05-29T01:46:55;7.53;;;5.50;;
12267;SDS011;6196;48.398;11.736;2023-05-29T01:49:25;7.00;;;4.73;;
12267;SDS011;6196;48.398;11.736;2023-05-29T01:51:54;7.37;;;5.30;;
12267;SDS011;6196;48.398;11.736;2023-05-29T01:54:21;6.40;;;5.30;;
12267;SDS011;6196;48.398;11.736;2023-05-29T01:56:48;6.77;;;5.10;;
12267;SDS011;6196;48.398;11.736;2023-05-29T01:59:16;9.57;;;5.30;;
12267;SDS011;6196;48.398;11.736;2023-05-29T02:01:44;6.30;;;4.83;;
12267;SDS011;6196;48.398;11.736;2023-05-29T02:04:11;6.57;;;4.87;;
12267;SDS011;6196;48.398;11.736;2023-05-29T02:06:38;7.77;;;5.20;;
12267;SDS011;6196;48.398;11.736;2023-05-29T02:09:05;7.57;;;5.30;;
12267;SDS011;6196;48.398;11.736;2023-05-29T02:11:33;8.03;;;5.00;;
12267;SDS011;6196;48.398;11.736;2023-05-29T02:14:00;6.87;;;5.47;;
12267;SDS011;6196;48.398;11.736;2023-05-29T02:16:29;8.37;;;5.43;;
12267;SDS011;6196;48.398;11.736;2023-05-29T02:19:00;7.57;;;5.13;;
12267;SDS011;6196;48.398;11.736;2023-05-29T02:21:28;7.57;;;5.80;;
12267;SDS011;6196;48.398;11.736;2023-05-29T02:23:55;9.70;;;5.90;;
12267;SDS011;6196;48.398;11.736;2023-05-29T02:26:22;7.63;;;5.30;;
12267;SDS011;6196;48.398;11.736;2023-05-29T02:28:49;8.60;;;5.40;;
12267;SDS011;6196;48.398;11.736;2023-05-29T02:31:16;7.87;;;5.60;;
12267;SDS011;6196;48.398;11.736;2023-05-29T02:33:43;6.90;;;5.37;;
12267;SDS011;6196;48.398;11.736;2023-05-29T02:36:10;7.37;;;5.53;;
12267;SDS011;6196;48.398;11.736;2023-05-29T02:38:37;9.23;;;5.97;;
12267;SDS011;6196;48.398;11.736;2023-05-29T02:41:05;9.53;;;5.67;;
12267;SDS011;6196;48.398;11.736;2023-05-29T02:43:32;8.20;;;5.87;;
12267;SDS011;6196;48.398;11.736;2023-05-29T02:45:59;7.77;;;5.50;;
12267;SDS011;6196;48.398;11.736;2023-05-29T02:48:26;7.43;;;5.60;;
12267;SDS011;6196;48.398;11.736;2023-05-29T02:50:53;8.37;;;5.73;;
12267;SDS011;6196;48.398;11.736;2023-05-29T02:53:20;8.43;;;6.23;;
12267;SDS011;6196;48.398;11.736;2023-05-29T02:55:47;6.93;;;5.60;;
12267;SDS011;6196;48.398;11.736;2023-05-29T02:58:15;7.70;;;5.73;;
12267;SDS011;6196;48.398;11.736;2023-05-29T03:00:42;6.67;;;5.43;;
12267;SDS011;6196;48.398;11.736;2023-05-29T03:03:09;9.23;;;5.80;;
12267;SDS011;6196;48.398;11.736;2023-05-29T03:05:36;8.30;;;5.40;;
12267;SDS011;6196;48.398;11.736;2023-05-29T03:08:03;9.73;;;5.97;;
12267;SDS011;6196;48.398;11.736;2023-05-29T03:10:31;10.67;;;5.90;;
12267;SDS011;6196;48.398;11.736;2023-05-29T03:12:57;9.30;;;6.00;;
12267;SDS011;6196;48.398;11.736;2023-05-29T03:15:24;8.87;;;5.80;;
12267;SDS011;6196;48.398;11.736;2023-05-29T03:17:52;8.17;;;5.93;;
12267;SDS011;6196;48.398;11.736;2023-05-29T03:20:19;11.10;;;5.80;;
12267;SDS011;6196;48.398;11.736;2023-05-29T03:22:46;8.33;;;5.83;;
12267;SDS011;6196;48.398;11.736;2023-05-29T03:25:13;7.80;;;5.37;;
12267;SDS011;6196;48.398;11.736;2023-05-29T03:27:41;6.87;;;5.37;;
12267;SDS011;6196;48.398;11.736;2023-05-29T03:30:08;6.70;;;5.27;;
12267;SDS011;6196;48.398;11.736;2023-05-29T03:32:36;7.20;;;5.37;;
12267;SDS011;6196;48.398;11.736;2023-05-29T03:35:03;8.83;;;5.83;;
12267;SDS011;6196;48.398;11.736;2023-05-29T03:37:30;7.63;;;5.13;;
12267;SDS011;6196;48.398;11.736;2023-05-29T03:39:57;8.03;;;5.50;;
12267;SDS011;6196;48.398;11.736;2023-05-29T03:42:24;8.80;;;5.37;;
12267;SDS011;6196;48.398;11.736;2023-05-29T03:44:51;8.10;;;5.50;;
12267;SDS011;6196;48.398;11.736;2023-05-29T03:47:18;8.87;;;5.77;;
12267;SDS011;6196;48.398;11.736;2023-05-29T03:49:44;7.77;;;5.13;;
12267;SDS011;6196;48.398;11.736;2023-05-29T03:52:11;7.63;;;5.33;;
12267;SDS011;6196;48.398;11.736;2023-05-29T03:54:38;7.83;;;5.60;;
12267;SDS011;6196;48.398;11.736;2023-05-29T03:57:05;6.37;;;5.03;;
12267;SDS011;6196;48.398;11.736;2023-05-29T03:59:33;8.83;;;5.67;;
12267;SDS011;6196;48.398;11.736;2023-05-29T04:01:59;8.77;;;5.37;;
12267;SDS011;6196;48.398;11.736;2023-05-29T04:04:26;6.90;;;5.23;;
12267;SDS011;6196;48.398;11.736;2023-05-29T04:06:53;8.63;;;5.63;;
12267;SDS011;6196;48.398;11.736;2023-05-29T04:09:21;8.23;;;5.33;;
12267;SDS011;6196;48.398;11.736;2023-05-29T04:11:48;8.67;;;5.20;;
12267;SDS011;6196;48.398;11.736;2023-05-29T04:14:15;6.67;;;5.07;;
12267;SDS011;6196;48.398;11.736;2023-05-29T04:16:44;7.67;;;5.43;;
12267;SDS011;6196;48.398;11.736;2023-05-29T04:19:11;7.67;;;5.30;;
12267;SDS011;6196;48.398;11.736;2023-05-29T04:21:38;5.40;;;4.60;;
12267;SDS011;6196;48.398;11.736;2023-05-29T04:24:06;6.90;;;4.63;;
12267;SDS011;6196;48.398;11.736;2023-05-29T04:26:33;7.63;;;5.00;;
12267;SDS011;6196;48.398;11.736;2023-05-29T04:28:59;6.87;;;5.10;;
12267;SDS011;6196;48.398;11.736;2023-05-29T04:31:26;6.40;;;4.77;;
12267;SDS011;6196;48.398;11.736;2023-05-29T04:33:54;6.60;;;5.40;;
12267;SDS011;6196;48.398;11.736;2023-05-29T04:36:24;8.97;;;5.23;;
12267;SDS011;6196;48.398;11.736;2023-05-29T04:38:54;9.20;;;5.60;;
12267;SDS011;6196;48.398;11.736;2023-05-29T04:41:21;8.67;;;5.50;;
12267;SDS011;6196;48.398;11.736;2023-05-29T04:43:50;5.60;;;4.93;;
12267;SDS011;6196;48.398;11.736;2023-05-29T04:46:24;7.93;;;5.13;;
12267;SDS011;6196;48.398;11.736;2023-05-29T04:48:52;6.80;;;5.37;;
12267;SDS011;6196;48.398;11.736;2023-05-29T04:51:20;6.00;;;4.97;;
12267;SDS011;6196;48.398;11.736;2023-05-29T04:53:48;7.23;;;5.13;;
12267;SDS011;6196;48.398;11.736;2023-05-29T04:56:17;6.33;;;5.27;;
12267;SDS011;6196;48.398;11.736;2023-05-29T04:58:44;6.47;;;4.97;;
12267;SDS011;6196;48.398;11.736;2023-05-29T05:01:11;8.77;;;4.80;;
12267;SDS011;6196;48.398;11.736;2023-05-29T05:03:41;7.37;;;5.20;;
12267;SDS011;6196;48.398;11.736;2023-05-29T05:06:09;6.20;;;4.70;;
12267;SDS011;6196;48.398;11.736;2023-05-29T05:08:36;5.90;;;4.67;;
12267;SDS011;6196;48.398;11.736;2023-05-29T05:11:03;6.43;;;4.63;;
12267;SDS011;6196;48.398;11.736;2023-05-29T05:13:32;6.93;;;4.80;;
12267;SDS011;6196;48.398;11.736;2023-05-29T05:15:59;7.10;;;5.60;;
12267;SDS011;6196;48.398;11.736;2023-05-29T05:18:26;6.80;;;4.73;;
12267;SDS011;6196;48.398;11.736;2023-05-29T05:20:53;6.30;;;4.17;;
12267;SDS011;6196;48.398;11.736;2023-05-29T05:23:21;5.60;;;4.60;;
12267;SDS011;6196;48.398;11.736;2023-05-29T05:25:47;5.40;;;4.50;;
12267;SDS011;6196;48.398;11.736;2023-05-29T05:28:14;6.53;;;4.43;;
12267;SDS011;6196;48.398;11.736;2023-05-29T05:30:41;6.13;;;4.73;;
12267;SDS011;6196;48.398;11.736;2023-05-29T05:33:08;4.77;;;4.13;;
12267;SDS011;6196;48.398;11.736;2023-05-29T05:35:35;6.23;;;4.50;;
12267;SDS011;6196;48.398;11.736;2023-05-29T05:38:02;7.33;;;4.47;;
12267;SDS011;6196;48.398;11.736;2023-05-29T05:40:29;7.47;;;4.67;;
12267;SDS011;6196;48.398;11.736;2023-05-29T05:42:56;7.40;;;4.70;;
12267;SDS011;6196;48.398;11.736;2023-05-29T05:45:23;6.93;;;4.63;;
12267;SDS011;6196;48.398;11.736;2023-05-29T05:47:50;5.47;;;4.23;;
12267;SDS011;6196;48.398;11.736;2023-05-29T05:50:17;6.33;;;3.90;;
12267;SDS011;6196;48.398;11.736;2023-05-29T05:52:44;7.23;;;4.13;;
12267;SDS011;6196;48.398;11.736;2023-05-29T05:55:11;4.97;;;3.93;;
12267;SDS011;6196;48.398;11.736;2023-05-29T05:57:38;7.80;;;4.47;;
12267;SDS011;6196;48.398;11.736;2023-05-29T06:00:05;6.13;;;4.40;;
12267;SDS011;6196;48.398;11.736;2023-05-29T06:02:42;5.80;;;4.13;;
12267;SDS011;6196;48.398;11.736;2023-05-29T06:05:11;5.83;;;3.87;;
12267;SDS011;6196;48.398;11.736;2023-05-29T06:07:38;5.37;;;3.63;;
12267;SDS011;6196;48.398;11.736;2023-05-29T06:10:05;7.00;;;4.00;;
12267;SDS011;6196;48.398;11.736;2023-05-29T06:12:33;6.03;;;3.90;;
12267;SDS011;6196;48.398;11.736;2023-05-29T06:15:03;7.63;;;4.50;;
12267;SDS011;6196;48.398;11.736;2023-05-29T06:17:31;6.23;;;4.30;;
12267;SDS011;6196;48.398;11.736;2023-05-29T06:19:58;6.07;;;4.03;;
12267;SDS011;6196;48.398;11.736;2023-05-29T06:22:26;7.43;;;4.13;;
12267;SDS011;6196;48.398;11.736;2023-05-29T06:24:53;5.20;;;3.63;;
12267;SDS011;6196;48.398;11.736;2023-05-29T06:27:20;4.40;;;3.90;;
12267;SDS011;6196;48.398;11.736;2023-05-29T06:29:49;7.20;;;4.20;;
12267;SDS011;6196;48.398;11.736;2023-05-29T06:32:16;5.03;;;3.77;;
12267;SDS011;6196;48.398;11.736;2023-05-29T06:34:43;5.10;;;3.97;;
12267;SDS011;6196;48.398;11.736;2023-05-29T06:37:10;5.57;;;3.80;;
12267;SDS011;6196;48.398;11.736;2023-05-29T06:39:37;6.10;;;3.83;;
12267;SDS011;6196;48.398;11.736;2023-05-29T06:42:05;6.67;;;3.93;;
12267;SDS011;6196;48.398;11.736;2023-05-29T06:44:32;5.97;;;4.13;;
12267;SDS011;6196;48.398;11.736;2023-05-29T06:46:59;6.47;;;4.53;;
12267;SDS011;6196;48.398;11.736;2023-05-29T06:49:26;7.33;;;4.40;;
12267;SDS011;6196;48.398;11.736;2023-05-29T06:51:53;5.70;;;4.07;;
12267;SDS011;6196;48.398;11.736;2023-05-29T06:54:20;5.93;;;4.27;;
12267;SDS011;6196;48.398;11.736;2023-05-29T06:56:47;4.63;;;3.43;;
12267;SDS011;6196;48.398;11.736;2023-05-29T06:59:31;7.50;;;4.30;;
12267;SDS011;6196;48.398;11.736;2023-05-29T07:01:58;5.50;;;4.03;;
12267;SDS011;6196;48.398;11.736;2023-05-29T07:04:25;5.33;;;4.43;;
12267;SDS011;6196;48.398;11.736;2023-05-29T07:06:52;7.33;;;4.97;;
12267;SDS011;6196;48.398;11.736;2023-05-29T07:09:19;5.43;;;4.13;;
12267;SDS011;6196;48.398;11.736;2023-05-29T07:11:46;7.03;;;5.07;;
12267;SDS011;6196;48.398;11.736;2023-05-29T07:14:13;5.37;;;4.53;;
12267;SDS011;6196;48.398;11.736;2023-05-29T07:16:40;6.23;;;4.13;;
12267;SDS011;6196;48.398;11.736;2023-05-29T07:19:07;5.03;;;3.97;;
12267;SDS011;6196;48.398;11.736;2023-05-29T07:21:47;7.50;;;4.40;;
12267;SDS011;6196;48.398;11.736;2023-05-29T07:24:14;6.63;;;4.47;;
12267;SDS011;6196;48.398;11.736;2023-05-29T07:26:41;6.23;;;4.63;;
12267;SDS011;6196;48.398;11.736;2023-05-29T07:29:09;5.53;;;4.10;;
12267;SDS011;6196;48.398;11.736;2023-05-29T07:31:36;8.87;;;4.70;;
12267;SDS011;6196;48.398;11.736;2023-05-29T07:34:04;7.40;;;4.90;;
12267;SDS011;6196;48.398;11.736;2023-05-29T07:36:31;6.07;;;4.73;;
12267;SDS011;6196;48.398;11.736;2023-05-29T07:38:58;4.90;;;4.40;;
12267;SDS011;6196;48.398;11.736;2023-05-29T07:41:25;6.07;;;4.13;;
12267;SDS011;6196;48.398;11.736;2023-05-29T07:43:55;6.37;;;4.40;;
12267;SDS011;6196;48.398;11.736;2023-05-29T07:46:22;7.43;;;4.43;;
12267;SDS011;6196;48.398;11.736;2023-05-29T07:48:49;6.53;;;4.30;;
12267;SDS011;6196;48.398;11.736;2023-05-29T07:51:16;5.40;;;4.27;;
12267;SDS011;6196;48.398;11.736;2023-05-29T07:53:44;7.23;;;4.17;;
12267;SDS011;6196;48.398;11.736;2023-05-29T07:56:12;6.00;;;4.93;;
12267;SDS011;6196;48.398;11.736;2023-05-29T07:58:39;6.13;;;4.40;;
12267;SDS011;6196;48.398;11.736;2023-05-29T08:01:07;8.07;;;4.63;;
12267;SDS011;6196;48.398;11.736;2023-05-29T08:03:34;6.53;;;4.67;;
12267;SDS011;6196;48.398;11.736;2023-05-29T08:06:01;6.30;;;4.67;;
12267;SDS011;6196;48.398;11.736;2023-05-29T08:08:29;8.73;;;4.30;;
12267;SDS011;6196;48.398;11.736;2023-05-29T08:10:56;7.77;;;4.43;;
12267;SDS011;6196;48.398;11.736;2023-05-29T08:13:23;5.37;;;4.50;;
12267;SDS011;6196;48.398;11.736;2023-05-29T08:15:50;6.30;;;4.27;;
12267;SDS011;6196;48.398;11.736;2023-05-29T08:18:17;5.83;;;4.37;;
12267;SDS011;6196;48.398;11.736;2023-05-29T08:20:44;6.37;;;4.30;;
12267;SDS011;6196;48.398;11.736;2023-05-29T08:23:11;6.97;;;4.10;;
12267;SDS011;6196;48.398;11.736;2023-05-29T08:25:38;7.43;;;4.17;;
12267;SDS011;6196;48.398;11.736;2023-05-29T08:28:05;8.63;;;4.43;;
12267;SDS011;6196;48.398;11.736;2023-05-29T08:30:32;6.37;;;4.33;;
12267;SDS011;6196;48.398;11.736;2023-05-29T08:32:59;8.07;;;4.30;;
12267;SDS011;6196;48.398;11.736;2023-05-29T08:35:26;6.37;;;4.20;;
12267;SDS011;6196;48.398;11.736;2023-05-29T08:37:53;6.37;;;4.53;;
12267;SDS011;6196;48.398;11.736;2023-05-29T08:40:20;6.53;;;4.50;;
12267;SDS011;6196;48.398;11.736;2023-05-29T08:42:50;6.37;;;4.40;;
12267;SDS011;6196;48.398;11.736;2023-05-29T08:45:31;7.70;;;4.43;;
12267;SDS011;6196;48.398;11.736;2023-05-29T08:48:01;5.17;;;4.33;;
12267;SDS011;6196;48.398;11.736;2023-05-29T08:50:29;5.53;;;4.13;;
12267;SDS011;6196;48.398;11.736;2023-05-29T08:52:56;5.40;;;4.57;;
12267;SDS011;6196;48.398;11.736;2023-05-29T08:55:24;11.00;;;4.80;;
12267;SDS011;6196;48.398;11.736;2023-05-29T08:57:50;7.00;;;4.70;;
12267;SDS011;6196;48.398;11.736;2023-05-29T09:00:18;6.43;;;4.50;;
12267;SDS011;6196;48.398;11.736;2023-05-29T09:02:48;7.30;;;4.70;;
12267;SDS011;6196;48.398;11.736;2023-05-29T09:05:15;5.03;;;4.27;;
12267;SDS011;6196;48.398;11.736;2023-05-29T09:07:43;7.10;;;4.40;;
12267;SDS011;6196;48.398;11.736;2023-05-29T09:10:10;6.40;;;4.70;;
12267;SDS011;6196;48.398;11.736;2023-05-29T09:12:38;8.37;;;4.87;;
12267;SDS011;6196;48.398;11.736;2023-05-29T09:15:19;7.23;;;4.50;;
12267;SDS011;6196;48.398;11.736;2023-05-29T09:20:19;6.77;;;4.70;;
12267;SDS011;6196;48.398;11.736;2023-05-29T09:25:29;6.57;;;4.70;;
12267;SDS011;6196;48.398;11.736;2023-05-29T09:28:05;6.17;;;4.53;;
12267;SDS011;6196;48.398;11.736;2023-05-29T09:30:38;5.20;;;4.70;;
12267;SDS011;6196;48.398;11.736;2023-05-29T09:33:15;5.80;;;4.57;;
12267;SDS011;6196;48.398;11.736;2023-05-29T09:35:43;6.97;;;4.60;;
12267;SDS011;6196;48.398;11.736;2023-05-29T09:38:12;5.67;;;4.90;;
12267;SDS011;6196;48.398;11.736;2023-05-29T09:41:04;8.63;;;4.47;;
12267;SDS011;6196;48.398;11.736;2023-05-29T09:43:32;6.03;;;4.13;;
12267;SDS011;6196;48.398;11.736;2023-05-29T09:46:00;6.93;;;4.63;;
12267;SDS011;6196;48.398;11.736;2023-05-29T09:48:29;6.90;;;4.30;;
12267;SDS011;6196;48.398;11.736;2023-05-29T09:50:56;9.07;;;4.60;;
12267;SDS011;6196;48.398;11.736;2023-05-29T09:53:25;5.37;;;4.50;;
12267;SDS011;6196;48.398;11.736;2023-05-29T09:55:55;6.97;;;4.43;;
12267;SDS011;6196;48.398;11.736;2023-05-29T09:58:24;6.87;;;4.67;;
12267;SDS011;6196;48.398;11.736;2023-05-29T10:00:52;6.57;;;4.80;;
12267;SDS011;6196;48.398;11.736;2023-05-29T10:03:19;4.80;;;4.30;;
12267;SDS011;6196;48.398;11.736;2023-05-29T10:05:50;6.00;;;4.27;;
12267;SDS011;6196;48.398;11.736;2023-05-29T10:08:23;5.50;;;4.40;;
12267;SDS011;6196;48.398;11.736;2023-05-29T10:10:54;4.80;;;4.03;;
12267;SDS011;6196;48.398;11.736;2023-05-29T10:13:28;6.17;;;4.73;;
12267;SDS011;6196;48.398;11.736;2023-05-29T10:16:03;7.17;;;4.33;;
12267;SDS011;6196;48.398;11.736;2023-05-29T10:18:35;6.20;;;4.67;;
12267;SDS011;6196;48.398;11.736;2023-05-29T10:21:06;5.50;;;4.30;;
12267;SDS011;6196;48.398;11.736;2023-05-29T10:23:34;6.25;;;4.50;;
12267;SDS011;6196;48.398;11.736;2023-05-29T10:26:15;4.80;;;4.03;;
12267;SDS011;6196;48.398;11.736;2023-05-29T10:28:54;6.03;;;4.32;;
12267;SDS011;6196;48.398;11.736;2023-05-29T10:31:33;5.68;;;4.80;;
12267;SDS011;6196;48.398;11.736;2023-05-29T10:34:24;7.80;;;4.25;;
12267;SDS011;6196;48.398;11.736;2023-05-29T10:37:09;5.95;;;4.38;;
12267;SDS011;6196;48.398;11.736;2023-05-29T10:39:46;5.30;;;4.40;;
12267;SDS011;6196;48.398;11.736;2023-05-29T10:42:39;7.55;;;4.43;;
12267;SDS011;6196;48.398;11.736;2023-05-29T10:50:46;4.65;;;4.15;;
12267;SDS011;6196;48.398;11.736;2023-05-29T10:53:14;6.97;;;4.22;;
12267;SDS011;6196;48.398;11.736;2023-05-29T10:55:51;5.72;;;4.57;;
12267;SDS011;6196;48.398;11.736;2023-05-29T11:00:51;6.03;;;4.57;;
12267;SDS011;6196;48.398;11.736;2023-05-29T11:03:30;5.35;;;4.70;;
12267;SDS011;6196;48.398;11.736;2023-05-29T11:05:59;5.28;;;4.20;;
12267;SDS011;6196;48.398;11.736;2023-05-29T11:08:55;6.70;;;4.40;;
12267;SDS011;6196;48.398;11.736;2023-05-29T11:14:01;6.97;;;4.50;;
12267;SDS011;6196;48.398;11.736;2023-05-29T11:19:01;5.15;;;4.50;;
12267;SDS011;6196;48.398;11.736;2023-05-29T11:24:22;5.88;;;4.28;;
12267;SDS011;6196;48.398;11.736;2023-05-29T11:26:55;5.45;;;4.18;;
12267;SDS011;6196;48.398;11.736;2023-05-29T11:29:26;7.07;;;4.18;;
12267;SDS011;6196;48.398;11.736;2023-05-29T11:31:55;5.20;;;4.07;;
12267;SDS011;6196;48.398;11.736;2023-05-29T11:34:30;5.10;;;4.07;;
12267;SDS011;6196;48.398;11.736;2023-05-29T11:36:59;7.25;;;4.03;;
12267;SDS011;6196;48.398;11.736;2023-05-29T11:39:28;6.60;;;4.22;;
12267;SDS011;6196;48.398;11.736;2023-05-29T11:41:55;5.63;;;4.32;;
12267;SDS011;6196;48.398;11.736;2023-05-29T11:44:25;5.40;;;3.92;;
12267;SDS011;6196;48.398;11.736;2023-05-29T11:46:59;4.93;;;4.18;;
12267;SDS011;6196;48.398;11.736;2023-05-29T11:49:31;5.28;;;3.45;;
12267;SDS011;6196;48.398;11.736;2023-05-29T11:54:42;4.70;;;4.05;;
12267;SDS011;6196;48.398;11.736;2023-05-29T11:57:18;5.15;;;3.83;;
12267;SDS011;6196;48.398;11.736;2023-05-29T11:59:46;5.18;;;3.95;;
12267;SDS011;6196;48.398;11.736;2023-05-29T12:02:15;5.13;;;4.25;;
12267;SDS011;6196;48.398;11.736;2023-05-29T12:04:42;5.97;;;4.35;;
12267;SDS011;6196;48.398;11.736;2023-05-29T12:07:16;7.82;;;4.10;;
12267;SDS011;6196;48.398;11.736;2023-05-29T12:09:46;5.28;;;4.18;;
12267;SDS011;6196;48.398;11.736;2023-05-29T12:12:19;5.40;;;4.25;;
12267;SDS011;6196;48.398;11.736;2023-05-29T12:14:49;5.25;;;4.13;;
12267;SDS011;6196;48.398;11.736;2023-05-29T12:17:17;6.15;;;3.88;;
12267;SDS011;6196;48.398;11.736;2023-05-29T12:19:45;5.28;;;3.38;;
12267;SDS011;6196;48.398;11.736;2023-05-29T12:22:12;7.35;;;4.07;;
12267;SDS011;6196;48.398;11.736;2023-05-29T12:24:39;4.60;;;3.88;;
12267;SDS011;6196;48.398;11.736;2023-05-29T12:27:09;8.05;;;4.45;;
12267;SDS011;6196;48.398;11.736;2023-05-29T12:29:36;4.45;;;4.00;;
12267;SDS011;6196;48.398;11.736;2023-05-29T12:32:03;5.13;;;3.90;;
12267;SDS011;6196;48.398;11.736;2023-05-29T12:34:36;4.32;;;3.90;;
12267;SDS011;6196;48.398;11.736;2023-05-29T12:37:09;7.22;;;4.30;;
12267;SDS011;6196;48.398;11.736;2023-05-29T12:39:40;4.22;;;3.60;;
12267;SDS011;6196;48.398;11.736;2023-05-29T12:42:07;5.40;;;3.97;;
12267;SDS011;6196;48.398;11.736;2023-05-29T12:44:34;4.93;;;3.75;;
12267;SDS011;6196;48.398;11.736;2023-05-29T12:47:04;4.50;;;3.80;;
12267;SDS011;6196;48.398;11.736;2023-05-29T12:49:35;4.85;;;4.05;;
12267;SDS011;6196;48.398;11.736;2023-05-29T12:52:05;5.82;;;4.10;;
12267;SDS011;6196;48.398;11.736;2023-05-29T12:54:34;4.82;;;3.53;;
12267;SDS011;6196;48.398;11.736;2023-05-29T12:57:01;5.60;;;3.97;;
12267;SDS011;6196;48.398;11.736;2023-05-29T12:59:28;5.00;;;4.20;;
12267;SDS011;6196;48.398;11.736;2023-05-29T13:01:55;5.57;;;4.25;;
12267;SDS011;6196;48.398;11.736;2023-05-29T13:04:22;4.65;;;3.88;;
12267;SDS011;6196;48.398;11.736;2023-05-29T13:06:49;4.22;;;3.80;;
12267;SDS011;6196;48.398;11.736;2023-05-29T13:09:16;4.63;;;3.42;;
12267;SDS011;6196;48.398;11.736;2023-05-29T13:11:43;4.72;;;3.97;;
12267;SDS011;6196;48.398;11.736;2023-05-29T13:14:10;5.55;;;4.15;;
12267;SDS011;6196;48.398;11.736;2023-05-29T13:16:37;5.47;;;3.75;;
12267;SDS011;6196;48.398;11.736;2023-05-29T13:19:04;4.93;;;4.15;;
12267;SDS011;6196;48.398;11.736;2023-05-29T13:21:31;5.15;;;3.60;;
12267;SDS011;6196;48.398;11.736;2023-05-29T13:23:58;6.35;;;3.72;;
12267;SDS011;6196;48.398;11.736;2023-05-29T13:26:25;5.78;;;4.05;;
12267;SDS011;6196;48.398;11.736;2023-05-29T13:28:53;4.22;;;3.42;;
12267;SDS011;6196;48.398;11.736;2023-05-29T13:31:20;4.43;;;3.55;;
12267;SDS011;6196;48.398;11.736;2023-05-29T13:33:47;5.03;;;3.65;;
12267;SDS011;6196;48.398;11.736;2023-05-29T13:36:14;4.53;;;3.35;;
12267;SDS011;6196;48.398;11.736;2023-05-29T13:38:41;5.95;;;3.83;;
12267;SDS011;6196;48.398;11.736;2023-05-29T13:41:10;4.78;;;4.28;;
12267;SDS011;6196;48.398;11.736;2023-05-29T13:43:37;3.97;;;3.40;;
12267;SDS011;6196;48.398;11.736;2023-05-29T13:46:10;4.23;;;3.50;;
12267;SDS011;6196;48.398;11.736;2023-05-29T13:48:38;4.53;;;3.88;;
12267;SDS011;6196;48.398;11.736;2023-05-29T13:51:05;5.22;;;4.03;;
12267;SDS011;6196;48.398;11.736;2023-05-29T13:53:32;4.57;;;3.63;;
12267;SDS011;6196;48.398;11.736;2023-05-29T13:55:59;4.50;;;3.83;;
12267;SDS011;6196;48.398;11.736;2023-05-29T13:58:26;6.30;;;3.95;;
12267;SDS011;6196;48.398;11.736;2023-05-29T14:00:53;6.30;;;3.75;;
12267;SDS011;6196;48.398;11.736;2023-05-29T14:03:20;4.57;;;3.65;;
12267;SDS011;6196;48.398;11.736;2023-05-29T14:05:50;7.03;;;3.65;;
12267;SDS011;6196;48.398;11.736;2023-05-29T14:08:17;5.40;;;3.90;;
12267;SDS011;6196;48.398;11.736;2023-05-29T14:10:44;4.32;;;3.50;;
12267;SDS011;6196;48.398;11.736;2023-05-29T14:13:11;5.03;;;3.58;;
12267;SDS011;6196;48.398;11.736;2023-05-29T14:15:38;3.80;;;3.40;;
12267;SDS011;6196;48.398;11.736;2023-05-29T14:18:19;6.63;;;3.45;;
12267;SDS011;6196;48.398;11.736;2023-05-29T14:20:46;4.75;;;3.72;;
12267;SDS011;6196;48.398;11.736;2023-05-29T14:23:16;4.85;;;4.00;;
12267;SDS011;6196;48.398;11.736;2023-05-29T14:25:44;5.40;;;3.53;;
12267;SDS011;6196;48.398;11.736;2023-05-29T14:28:11;4.97;;;4.03;;
12267;SDS011;6196;48.398;11.736;2023-05-29T14:30:38;6.90;;;3.92;;
12267;SDS011;6196;48.398;11.736;2023-05-29T14:33:05;6.13;;;4.40;;
12267;SDS011;6196;48.398;11.736;2023-05-29T14:35:32;4.57;;;3.75;;
12267;SDS011;6196;48.398;11.736;2023-05-29T14:37:59;5.35;;;3.70;;
12267;SDS011;6196;48.398;11.736;2023-05-29T14:40:25;5.40;;;3.83;;
12267;SDS011;6196;48.398;11.736;2023-05-29T14:42:53;6.22;;;3.42;;
12267;SDS011;6196;48.398;11.736;2023-05-29T14:45:20;5.13;;;3.63;;
12267;SDS011;6196;48.398;11.736;2023-05-29T14:47:47;5.05;;;3.75;;
12267;SDS011;6196;48.398;11.736;2023-05-29T14:50:14;4.97;;;3.58;;
12267;SDS011;6196;48.398;11.736;2023-05-29T14:52:41;5.03;;;4.05;;
12267;SDS011;6196;48.398;11.736;2023-05-29T14:55:08;4.25;;;3.38;;
12267;SDS011;6196;48.398;11.736;2023-05-29T14:57:35;6.63;;;3.60;;
12267;SDS011;6196;48.398;11.736;2023-05-29T15:00:03;3.95;;;3.50;;
12267;SDS011;6196;48.398;11.736;2023-05-29T15:02:32;4.22;;;3.80;;
12267;SDS011;6196;48.398;11.736;2023-05-29T15:04:59;5.13;;;4.03;;
12267;SDS011;6196;48.398;11.736;2023-05-29T15:07:26;3.25;;;2.95;;
12267;SDS011;6196;48.398;11.736;2023-05-29T15:09:53;3.42;;;2.92;;
12267;SDS011;6196;48.398;11.736;2023-05-29T15:12:21;3.75;;;3.35;;
12267;SDS011;6196;48.398;11.736;2023-05-29T15:14:48;4.20;;;3.75;;
12267;SDS011;6196;48.398;11.736;2023-05-29T15:17:16;5.05;;;3.75;;
12267;SDS011;6196;48.398;11.736;2023-05-29T15:19:44;3.78;;;3.45;;
12267;SDS011;6196;48.398;11.736;2023-05-29T15:22:11;4.80;;;3.55;;
12267;SDS011;6196;48.398;11.736;2023-05-29T15:24:38;4.30;;;3.30;;
12267;SDS011;6196;48.398;11.736;2023-05-29T15:27:05;4.60;;;3.58;;
12267;SDS011;6196;48.398;11.736;2023-05-29T15:29:33;5.47;;;3.33;;
12267;SDS011;6196;48.398;11.736;2023-05-29T15:32:02;4.65;;;3.38;;